Time;durP1;ratioP1;P1;durP2;ratioP2;P2;SDS_P1;SDS_P2;PMS_P1;PMS_P2;Temp;Humidity;BMP_temperature;BMP_pressure;BME280_temperature;BME280_humidity;BME280_pressure;Samples;Min_cycle;Max_cycle;Signal;HPM_P1;HPM_P2
2022/09/06 00:01:36;;;;;;;5.90;3.50;;;22.40;57.60;;;;;;4939961;28;20451;-72
2022/09/06 00:04:02;;;;;;;5.63;3.55;;;22.40;57.60;;;;;;4971926;28;20041;-72
2022/09/06 00:06:28;;;;;;;5.70;3.60;;;22.40;57.70;;;;;;4973252;28;20224;-72
2022/09/06 00:08:53;;;;;;;5.40;3.75;;;22.40;57.80;;;;;;4972743;28;20027;-72
2022/09/06 00:11:19;;;;;;;6.22;3.78;;;22.40;57.60;;;;;;4973154;28;20415;-71
2022/09/06 00:13:46;;;;;;;5.13;3.53;;;22.40;57.60;;;;;;4971943;28;20476;-72
2022/09/06 00:16:15;;;;;;;4.90;3.53;;;22.40;57.60;;;;;;4973134;28;20122;-72
2022/09/06 00:18:41;;;;;;;5.33;3.50;;;22.40;57.60;;;;;;4972683;28;20037;-72
2022/09/06 00:21:34;;;;;;;5.32;3.47;;;22.40;57.50;;;;;;4971792;28;20315;-72
2022/09/06 00:24:00;;;;;;;4.72;2.97;;;22.40;57.60;;;;;;4938158;28;20133;-72
2022/09/06 00:26:26;;;;;;;4.70;3.58;;;22.40;57.60;;;;;;4972907;28;20106;-72
2022/09/06 00:28:51;;;;;;;4.78;3.50;;;22.40;57.60;;;;;;4971324;28;20038;-72
2022/09/06 00:31:20;;;;;;;6.28;3.80;;;22.40;57.50;;;;;;4972823;28;20037;-72
2022/09/06 00:33:46;;;;;;;5.25;3.40;;;22.40;57.50;;;;;;4973141;28;20471;-72
2022/09/06 00:40:18;;;;;;;6.57;3.38;;;22.40;57.50;;;;;;4972208;28;20042;-72
2022/09/06 00:42:44;;;;;;;5.47;3.45;;;22.40;57.40;;;;;;4971508;28;20027;-72
2022/09/06 00:45:13;;;;;;;4.68;3.33;;;22.40;57.50;;;;;;4972846;28;20030;-72
2022/09/06 00:47:44;;;;;;;5.63;3.40;;;22.40;57.50;;;;;;4971461;28;20511;-72
2022/09/06 00:50:14;;;;;;;4.18;3.40;;;22.40;57.50;;;;;;4972449;28;20049;-74
2022/09/06 00:52:41;;;;;;;5.20;3.50;;;22.40;57.50;;;;;;4955689;28;20376;-72
2022/09/06 00:55:13;;;;;;;5.07;3.38;;;22.40;57.60;;;;;;4971460;28;20403;-73
2022/09/06 00:57:39;;;;;;;5.35;3.35;;;22.40;57.50;;;;;;4955563;28;20039;-72
2022/09/06 01:00:08;;;;;;;5.88;3.50;;;22.40;57.60;;;;;;4954136;28;20035;-71
2022/09/06 01:02:34;;;;;;;5.97;3.55;;;22.30;57.50;;;;;;4973991;28;20033;-73
2022/09/06 01:05:06;;;;;;;6.47;3.58;;;22.40;57.60;;;;;;4958795;28;20034;-72
2022/09/06 01:07:49;;;;;;;6.15;3.60;;;22.40;57.60;;;;;;4975030;28;20553;-72
2022/09/06 01:10:54;;;;;;;4.35;3.20;;;22.40;57.60;;;;;;4975800;28;20482;-73
2022/09/06 01:13:42;;;;;;;4.38;3.33;;;22.40;57.60;;;;;;4976233;28;20167;-73
2022/09/06 01:16:10;;;;;;;5.50;3.35;;;22.30;57.50;;;;;;4958743;28;20037;-71
2022/09/06 01:18:53;;;;;;;6.90;3.42;;;22.40;57.60;;;;;;4974537;28;20031;-72
2022/09/06 01:21:30;;;;;;;4.55;3.30;;;22.40;57.60;;;;;;4974931;28;20558;-73
2022/09/06 01:24:17;;;;;;;4.75;3.47;;;22.40;57.60;;;;;;4976043;28;20066;-72
2022/09/06 01:27:01;;;;;;;4.80;3.33;;;22.40;57.60;;;;;;4976018;28;20030;-72
2022/09/06 01:29:42;;;;;;;5.03;3.22;;;22.30;57.60;;;;;;4975725;28;20058;-72
2022/09/06 01:32:24;;;;;;;4.63;3.20;;;22.40;57.50;;;;;;4975010;28;20130;-72
2022/09/06 01:34:57;;;;;;;4.57;3.25;;;22.30;57.50;;;;;;4942420;28;20376;-72
2022/09/06 01:37:23;;;;;;;6.30;3.40;;;22.30;57.60;;;;;;4974511;28;20421;-72
2022/09/06 01:39:49;;;;;;;5.15;3.67;;;22.30;57.50;;;;;;4974229;28;20403;-72
2022/09/06 01:42:17;;;;;;;5.82;3.10;;;22.30;57.50;;;;;;4974565;28;20034;-73
2022/09/06 01:44:53;;;;;;;4.95;3.38;;;22.30;57.50;;;;;;4975515;28;20053;-72
2022/09/06 01:47:43;;;;;;;4.47;2.65;;;22.30;57.50;;;;;;4991966;22;20021;-71
2022/09/06 01:50:15;;;;;;;;;;;22.30;57.60;;;;;;4992112;28;20034;-71
2022/09/06 01:53:05;;;;;;;5.30;3.40;;;22.30;57.50;;;;;;4994785;28;19963;-71
2022/09/06 01:55:43;;;;;;;3.97;2.97;;;22.30;57.50;;;;;;4994753;28;20096;-71
2022/09/06 01:58:28;;;;;;;5.50;3.30;;;22.30;57.50;;;;;;4994666;28;20033;-71
2022/09/06 02:01:07;;;;;;;4.30;3.00;;;22.30;57.60;;;;;;4994554;28;20081;-71
2022/09/06 02:03:36;;;;;;;4.43;3.00;;;22.30;57.60;;;;;;4994585;28;20026;-71
2022/09/06 02:06:13;;;;;;;3.83;2.92;;;22.30;57.60;;;;;;4977425;28;20066;-71
2022/09/06 02:08:49;;;;;;;4.35;2.80;;;22.30;57.30;;;;;;4976790;28;20061;-72
2022/09/06 02:11:16;;;;;;;4.40;2.95;;;22.40;57.50;;;;;;4977116;28;20035;-72
2022/09/06 02:13:46;;;;;;;4.60;3.20;;;22.40;57.40;;;;;;4994018;28;20058;-72
2022/09/06 02:16:18;;;;;;;4.70;3.05;;;22.40;57.40;;;;;;4994670;28;20092;-72
2022/09/06 02:18:53;;;;;;;3.88;3.05;;;22.40;57.40;;;;;;4994246;28;20031;-71
2022/09/06 02:21:26;;;;;;;4.68;3.22;;;22.30;57.30;;;;;;4994375;28;20034;-72
2022/09/06 02:23:53;;;;;;;5.55;3.50;;;22.40;57.40;;;;;;4976867;28;20026;-71
2022/09/06 02:26:29;;;;;;;4.60;3.03;;;22.40;57.30;;;;;;4993271;28;20046;-72
2022/09/06 02:28:55;;;;;;;3.78;2.70;;;22.40;57.20;;;;;;4976392;28;20042;-72
2022/09/06 02:31:28;;;;;;;4.30;3.03;;;22.40;57.30;;;;;;4976765;28;20022;-72
2022/09/06 02:33:55;;;;;;;4.18;2.75;;;22.40;57.30;;;;;;4994081;28;20502;-72
2022/09/06 02:36:21;;;;;;;3.58;2.63;;;22.40;57.20;;;;;;4994404;28;20174;-72
2022/09/06 02:38:46;;;;;;;4.38;2.92;;;22.40;57.20;;;;;;4993970;28;20519;-72
2022/09/06 02:41:17;;;;;;;4.18;2.92;;;22.40;57.20;;;;;;4993806;28;20034;-72
2022/09/06 02:43:43;;;;;;;4.50;2.85;;;22.40;57.30;;;;;;4994037;28;20046;-71
2022/09/06 02:46:09;;;;;;;4.10;2.97;;;22.30;57.30;;;;;;4993890;28;20467;-72
2022/09/06 02:48:35;;;;;;;4.43;2.70;;;22.30;57.20;;;;;;4993196;28;20121;-72
2022/09/06 02:51:05;;;;;;;3.63;2.63;;;22.30;57.30;;;;;;4960276;28;20026;-71
2022/09/06 02:53:31;;;;;;;4.90;2.95;;;22.30;57.20;;;;;;4993783;28;20406;-72
2022/09/06 02:55:57;;;;;;;4.13;2.90;;;22.30;57.30;;;;;;4976218;28;20023;-71
2022/09/06 02:58:23;;;;;;;4.57;2.90;;;22.30;57.50;;;;;;4993425;28;20077;-72
2022/09/06 03:00:51;;;;;;;4.35;3.13;;;22.30;57.40;;;;;;4976071;28;20041;-72
2022/09/06 03:03:18;;;;;;;3.92;2.92;;;22.30;57.30;;;;;;4993371;28;20026;-72
2022/09/06 03:05:48;;;;;;;4.78;3.35;;;22.30;57.40;;;;;;4960273;28;20056;-72
2022/09/06 03:08:18;;;;;;;3.97;2.65;;;22.30;57.30;;;;;;4975892;28;20458;-73
2022/09/06 03:10:55;;;;;;;4.65;2.67;;;22.30;57.40;;;;;;4976005;28;20031;-72
2022/09/06 03:13:23;;;;;;;3.80;2.70;;;22.30;57.30;;;;;;4976025;28;20467;-72
2022/09/06 03:15:50;;;;;;;3.80;2.67;;;22.30;57.30;;;;;;4975928;28;20027;-72
2022/09/06 03:18:16;;;;;;;4.18;2.70;;;22.30;57.30;;;;;;4993084;28;20399;-72
2022/09/06 03:20:42;;;;;;;4.35;2.80;;;22.30;57.40;;;;;;4992828;28;20033;-72
2022/09/06 03:23:08;;;;;;;3.28;2.63;;;22.30;57.30;;;;;;4993013;28;20033;-72
2022/09/06 03:25:34;;;;;;;4.15;2.78;;;22.30;57.30;;;;;;4992328;28;20026;-72
2022/09/06 03:28:00;;;;;;;3.85;3.00;;;22.30;57.40;;;;;;4975694;28;20022;-72
2022/09/06 03:30:26;;;;;;;4.25;2.65;;;22.30;57.30;;;;;;4992708;28;20415;-72
2022/09/06 03:32:52;;;;;;;4.35;2.65;;;22.30;57.30;;;;;;4975750;28;20022;-72
2022/09/06 03:35:18;;;;;;;4.63;3.10;;;22.30;57.20;;;;;;4975517;28;20100;-72
2022/09/06 03:37:44;;;;;;;4.03;2.67;;;22.30;57.20;;;;;;4975415;28;20038;-72
2022/09/06 03:40:10;;;;;;;4.45;2.70;;;22.30;57.20;;;;;;4992608;28;20031;-72
2022/09/06 03:42:36;;;;;;;4.10;2.60;;;22.30;57.30;;;;;;4992875;28;20134;-72
2022/09/06 03:45:02;;;;;;;3.80;2.80;;;22.30;57.20;;;;;;4975350;28;20088;-72
2022/09/06 03:47:28;;;;;;;4.28;2.80;;;22.30;57.20;;;;;;4959096;28;20427;-72
2022/09/06 03:49:53;;;;;;;4.18;2.60;;;22.30;57.20;;;;;;4992507;28;20030;-73
2022/09/06 03:52:19;;;;;;;4.15;2.90;;;22.30;57.30;;;;;;4975269;28;20101;-73
2022/09/06 03:54:45;;;;;;;5.47;3.22;;;22.20;57.10;;;;;;4992645;28;20030;-71
2022/09/06 03:57:11;;;;;;;4.68;2.85;;;22.30;57.30;;;;;;4992534;28;20030;-72
2022/09/06 03:59:36;;;;;;;4.45;2.85;;;22.30;57.30;;;;;;4992327;28;20032;-72
2022/09/06 04:02:03;;;;;;;4.70;3.03;;;22.30;57.20;;;;;;4959043;28;20034;-72
2022/09/06 04:04:28;;;;;;;4.03;2.60;;;22.30;57.30;;;;;;4975146;28;20033;-72
2022/09/06 04:06:54;;;;;;;3.38;2.40;;;22.30;57.30;;;;;;4992492;28;20027;-72
2022/09/06 04:09:20;;;;;;;4.00;2.78;;;22.30;57.20;;;;;;4992443;28;20073;-72
2022/09/06 04:11:46;;;;;;;3.55;2.60;;;22.30;57.30;;;;;;4975035;28;20026;-72
2022/09/06 04:14:12;;;;;;;5.40;2.72;;;22.20;57.10;;;;;;4992442;28;20030;-72
2022/09/06 04:16:38;;;;;;;4.72;2.75;;;22.30;57.20;;;;;;4975208;28;20125;-72
2022/09/06 04:19:03;;;;;;;3.22;2.33;;;22.30;57.20;;;;;;4991964;28;20053;-72
2022/09/06 04:21:30;;;;;;;4.00;2.58;;;22.30;57.10;;;;;;4992362;28;20031;-72
2022/09/06 04:23:55;;;;;;;3.10;2.35;;;22.30;57.20;;;;;;4992218;28;20121;-72
2022/09/06 04:26:21;;;;;;;3.33;2.38;;;22.30;57.20;;;;;;4992280;28;20436;-72
2022/09/06 04:28:47;;;;;;;4.43;2.58;;;22.30;57.20;;;;;;4991998;28;20491;-72
2022/09/06 04:31:13;;;;;;;4.50;2.90;;;22.30;57.20;;;;;;4975037;28;20062;-72
2022/09/06 04:33:40;;;;;;;4.13;3.00;;;22.30;57.20;;;;;;4992697;28;20030;-72
2022/09/06 04:36:09;;;;;;;3.95;2.75;;;22.30;57.10;;;;;;4992930;28;20038;-72
2022/09/06 04:38:44;;;;;;;4.57;3.03;;;22.30;57.10;;;;;;4978501;28;20038;-72
2022/09/06 04:41:13;;;;;;;4.78;2.90;;;22.30;57.10;;;;;;4978717;28;20026;-72
2022/09/06 04:43:39;;;;;;;4.23;2.83;;;22.30;57.00;;;;;;4996087;28;20026;-72
2022/09/06 04:46:23;;;;;;;2.92;2.42;;;22.30;57.10;;;;;;4996194;28;20328;-72
2022/09/06 04:48:50;;;;;;;3.88;2.70;;;22.30;57.10;;;;;;4978222;28;20034;-72
2022/09/06 04:51:17;;;;;;;4.03;2.58;;;22.30;57.10;;;;;;4979056;28;20089;-72
2022/09/06 04:53:43;;;;;;;3.95;2.83;;;22.30;57.20;;;;;;4962719;28;20046;-72
2022/09/06 04:56:20;;;;;;;3.30;2.60;;;22.30;57.20;;;;;;4978552;28;20034;-72
2022/09/06 04:58:48;;;;;;;4.47;2.78;;;22.20;57.20;;;;;;4977989;28;20030;-72
2022/09/06 05:01:14;;;;;;;4.40;2.92;;;22.20;57.20;;;;;;4995802;28;20026;-72
2022/09/06 05:03:40;;;;;;;3.83;2.60;;;22.20;57.10;;;;;;4973762;28;20035;-72
2022/09/06 05:06:11;;;;;;;3.40;2.35;;;22.20;57.10;;;;;;4941966;28;20038;-72
2022/09/06 05:08:39;;;;;;;3.53;2.60;;;22.20;57.10;;;;;;4957909;28;20019;-72
2022/09/06 05:11:06;;;;;;;4.25;2.60;;;22.20;57.10;;;;;;4958515;28;20103;-73
2022/09/06 05:13:32;;;;;;;3.45;2.60;;;22.20;57.20;;;;;;4975556;28;20077;-73
2022/09/06 05:16:05;;;;;;;3.88;2.50;;;22.20;57.20;;;;;;4976108;28;20069;-73
2022/09/06 05:18:32;;;;;;;4.20;2.70;;;22.20;57.10;;;;;;4942599;28;20038;-73
2022/09/06 05:20:58;;;;;;;3.67;2.60;;;22.20;57.10;;;;;;4976118;28;20027;-73
2022/09/06 05:23:25;;;;;;;5.43;2.30;;;22.20;57.20;;;;;;4975775;28;20475;-73
2022/09/06 05:25:51;;;;;;;4.32;2.90;;;22.20;57.10;;;;;;4975788;28;20027;-73
2022/09/06 05:28:17;;;;;;;3.10;2.50;;;22.20;57.10;;;;;;4975622;28;20463;-73
2022/09/06 05:30:43;;;;;;;5.25;2.80;;;22.20;57.10;;;;;;4975904;28;20057;-73
2022/09/06 05:33:10;;;;;;;3.47;2.60;;;22.20;57.10;;;;;;4958534;28;20034;-72
2022/09/06 05:35:36;;;;;;;3.30;2.65;;;22.20;57.10;;;;;;4942650;28;20031;-73
2022/09/06 05:38:01;;;;;;;4.32;2.90;;;22.20;57.10;;;;;;4957983;28;20034;-73
2022/09/06 05:40:27;;;;;;;3.92;2.40;;;22.20;57.20;;;;;;4958041;28;20030;-72
2022/09/06 05:42:53;;;;;;;4.30;2.85;;;22.20;57.10;;;;;;4958362;28;20031;-73
2022/09/06 05:45:19;;;;;;;4.68;2.90;;;22.20;57.10;;;;;;4958246;28;20030;-72
2022/09/06 05:47:45;;;;;;;4.70;2.60;;;22.20;57.10;;;;;;4957292;28;20106;-73
2022/09/06 05:50:11;;;;;;;4.18;2.70;;;22.20;57.00;;;;;;4975145;28;20053;-73
2022/09/06 05:52:38;;;;;;;5.53;2.70;;;22.20;57.00;;;;;;4975290;28;20491;-73
2022/09/06 05:55:04;;;;;;;3.85;2.75;;;22.20;57.00;;;;;;4975237;28;20038;-73
2022/09/06 05:57:30;;;;;;;4.40;2.55;;;22.20;57.10;;;;;;4975146;28;20085;-73
2022/09/06 05:59:56;;;;;;;3.45;2.58;;;22.20;57.10;;;;;;4957943;28;20038;-73
2022/09/06 06:02:22;;;;;;;2.90;2.28;;;22.20;57.10;;;;;;4942248;28;20387;-75
2022/09/06 06:04:48;;;;;;;3.22;2.30;;;22.20;57.10;;;;;;4975089;28;20035;-73
2022/09/06 06:07:14;;;;;;;3.70;2.63;;;22.20;57.20;;;;;;4957957;28;20049;-73
2022/09/06 06:09:40;;;;;;;4.05;2.75;;;22.20;57.20;;;;;;4941658;28;20031;-73
2022/09/06 06:12:07;;;;;;;4.13;2.67;;;22.20;57.10;;;;;;4975080;28;20368;-73
2022/09/06 06:14:33;;;;;;;5.40;2.60;;;22.20;57.10;;;;;;4941846;28;20062;-73
2022/09/06 06:16:59;;;;;;;4.60;2.60;;;22.20;57.10;;;;;;4974949;28;20471;-73
2022/09/06 06:19:28;;;;;;;3.95;2.35;;;22.20;57.10;;;;;;4974582;28;20031;-73
2022/09/06 06:21:57;;;;;;;3.60;2.42;;;22.30;57.10;;;;;;4974922;28;20031;-73
2022/09/06 06:24:23;;;;;;;3.10;2.40;;;22.30;57.00;;;;;;4957476;28;20037;-73
2022/09/06 06:26:49;;;;;;;5.07;2.45;;;22.30;57.50;;;;;;4974822;28;20479;-73
2022/09/06 06:29:14;;;;;;;3.75;2.70;;;22.30;57.00;;;;;;4974323;28;20030;-73
2022/09/06 06:31:40;;;;;;;4.10;2.60;;;22.30;57.10;;;;;;4974586;28;20027;-73
2022/09/06 06:34:07;;;;;;;3.30;2.35;;;22.20;57.00;;;;;;4974702;28;20109;-73
2022/09/06 06:36:34;;;;;;;3.53;2.58;;;22.30;57.00;;;;;;4941575;28;20085;-73
2022/09/06 06:39:03;;;;;;;3.42;2.10;;;22.30;57.00;;;;;;4974181;28;20399;-73
2022/09/06 06:41:30;;;;;;;4.53;2.60;;;22.30;57.00;;;;;;4957225;28;20038;-73
2022/09/06 06:44:01;;;;;;;3.55;2.33;;;22.30;57.00;;;;;;4941084;28;20034;-73
2022/09/06 06:46:34;;;;;;;3.72;2.60;;;22.30;57.10;;;;;;4957408;28;20564;-73
2022/09/06 06:48:59;;;;;;;3.75;2.50;;;22.30;57.10;;;;;;4956644;28;20026;-73
2022/09/06 06:51:27;;;;;;;5.00;2.70;;;22.20;57.00;;;;;;4974234;28;20037;-73
2022/09/06 06:53:55;;;;;;;3.05;2.20;;;22.30;57.10;;;;;;4974199;28;20081;-73
2022/09/06 06:56:31;;;;;;;3.80;2.40;;;22.30;57.10;;;;;;4957482;28;20398;-73
2022/09/06 06:58:59;;;;;;;3.08;2.20;;;22.30;57.10;;;;;;4956496;28;20023;-74
2022/09/06 07:01:27;;;;;;;3.63;2.40;;;22.30;57.60;;;;;;4957143;28;20044;-74
2022/09/06 07:03:53;;;;;;;4.97;2.20;;;22.30;57.10;;;;;;4973945;28;20082;-73
2022/09/06 07:06:19;;;;;;;3.20;2.25;;;22.30;57.20;;;;;;4957142;28;20030;-74
2022/09/06 07:08:45;;;;;;;3.00;2.03;;;22.30;57.10;;;;;;4973538;28;20110;-73
2022/09/06 07:11:13;;;;;;;3.40;2.53;;;22.30;57.10;;;;;;4956643;28;20031;-73
2022/09/06 07:13:39;;;;;;;3.72;2.35;;;22.30;57.10;;;;;;4973911;28;20114;-74
2022/09/06 07:16:15;;;;;;;5.35;2.20;;;22.30;57.10;;;;;;4956873;28;20058;-73
2022/09/06 07:18:44;;;;;;;3.67;2.20;;;22.30;57.10;;;;;;4940411;28;20035;-74
2022/09/06 07:21:17;;;;;;;4.05;2.10;;;22.30;57.20;;;;;;4956445;28;20029;-73
2022/09/06 07:23:44;;;;;;;2.67;2.13;;;22.30;57.10;;;;;;4973254;28;20093;-73
2022/09/06 07:26:18;;;;;;;4.15;2.17;;;22.30;57.20;;;;;;4973699;28;20031;-74
2022/09/06 07:28:45;;;;;;;3.22;2.30;;;22.30;57.10;;;;;;4956467;28;20030;-74
2022/09/06 07:31:11;;;;;;;3.53;2.60;;;22.40;57.10;;;;;;4956415;28;20084;-74
2022/09/06 07:33:38;;;;;;;2.97;2.20;;;22.30;57.30;;;;;;4940597;28;20392;-74
2022/09/06 07:36:06;;;;;;;3.20;2.28;;;22.30;57.10;;;;;;4973696;28;20026;-73
2022/09/06 07:38:32;;;;;;;3.08;2.22;;;22.40;57.20;;;;;;4940075;28;20059;-74
2022/09/06 07:41:01;;;;;;;3.13;2.08;;;22.40;57.60;;;;;;4973377;28;20404;-73
2022/09/06 07:43:27;;;;;;;3.15;2.40;;;22.40;57.40;;;;;;4956106;28;20030;-73
2022/09/06 07:45:58;;;;;;;3.50;2.30;;;22.40;57.30;;;;;;4973332;28;20116;-73
2022/09/06 07:48:24;;;;;;;2.78;2.10;;;22.40;57.30;;;;;;4956199;28;20287;-73
2022/09/06 07:50:50;;;;;;;2.33;1.90;;;22.40;58.10;;;;;;4955848;28;20034;-73
2022/09/06 07:53:16;;;;;;;3.15;2.00;;;22.40;57.60;;;;;;4973432;28;20027;-73
2022/09/06 07:55:42;;;;;;;3.15;2.25;;;22.40;57.60;;;;;;4973101;28;20118;-73
2022/09/06 07:58:07;;;;;;;3.20;2.22;;;22.40;57.40;;;;;;4972973;28;20407;-73
2022/09/06 08:00:33;;;;;;;3.00;2.13;;;22.40;57.30;;;;;;4955694;28;20207;-73
2022/09/06 08:02:59;;;;;;;3.63;2.10;;;22.40;57.60;;;;;;4973189;28;20117;-73
2022/09/06 08:05:25;;;;;;;4.13;2.33;;;22.40;57.50;;;;;;4955764;28;20113;-74
2022/09/06 08:07:50;;;;;;;3.20;2.20;;;22.40;57.40;;;;;;4973129;28;20026;-73
2022/09/06 08:10:16;;;;;;;3.53;2.08;;;22.40;57.70;;;;;;4972783;28;20085;-73
2022/09/06 08:12:42;;;;;;;3.60;2.25;;;22.40;57.60;;;;;;4972772;28;20027;-73
2022/09/06 08:15:08;;;;;;;3.70;2.47;;;22.40;57.40;;;;;;4972904;28;20023;-73
2022/09/06 08:17:34;;;;;;;3.95;2.10;;;22.40;57.60;;;;;;4971717;28;20039;-73
2022/09/06 08:20:02;;;;;;;2.75;1.98;;;22.40;57.70;;;;;;4972658;28;20039;-73
2022/09/06 08:22:32;;;;;;;3.50;2.33;;;22.40;57.70;;;;;;4955875;28;20039;-73
2022/09/06 08:24:58;;;;;;;3.45;2.42;;;22.40;57.50;;;;;;4972653;28;20074;-73
2022/09/06 08:27:24;;;;;;;2.88;1.90;;;22.40;58.10;;;;;;4972858;28;20035;-73
2022/09/06 08:29:51;;;;;;;2.85;2.05;;;22.40;57.70;;;;;;4954987;28;20447;-73
2022/09/06 08:32:18;;;;;;;3.35;2.10;;;22.40;57.70;;;;;;4972886;28;20034;-73
2022/09/06 08:34:44;;;;;;;3.78;2.22;;;22.40;57.70;;;;;;4972799;28;20439;-73
2022/09/06 08:37:10;;;;;;;3.65;2.25;;;22.40;57.50;;;;;;4955615;28;20027;-73
2022/09/06 08:39:36;;;;;;;2.75;2.10;;;22.40;57.70;;;;;;4972291;28;20037;-74
2022/09/06 08:42:04;;;;;;;3.63;2.30;;;22.40;57.80;;;;;;4967231;28;20050;-73
2022/09/06 08:44:39;;;;;;;4.18;2.40;;;22.40;57.50;;;;;;4953095;28;20031;-73
2022/09/06 08:47:11;;;;;;;2.85;1.90;;;22.40;57.70;;;;;;4946081;28;20514;-73
2022/09/06 08:49:44;;;;;;;4.10;2.13;;;22.40;57.70;;;;;;4934893;29;20035;-73
2022/09/06 08:52:43;;;;;;;3.50;2.42;;;22.40;57.50;;;;;;4963629;28;20158;-72
2022/09/06 08:55:20;;;;;;;23.58;3.58;;;22.40;57.80;;;;;;4946147;28;20130;-73
2022/09/06 08:58:19;;;;;;;6.85;2.72;;;22.40;58.40;;;;;;4962855;28;20109;-72
2022/09/06 09:01:08;;;;;;;11.35;3.28;;;22.40;58.70;;;;;;4964136;28;20037;-72
2022/09/06 09:03:36;;;;;;;12.43;3.45;;;22.30;58.20;;;;;;4965322;28;20029;-73
2022/09/06 09:06:04;;;;;;;7.30;2.58;;;22.40;58.20;;;;;;4953460;28;20033;-73
2022/09/06 09:08:38;;;;;;;8.82;2.90;;;22.40;58.30;;;;;;4971960;28;20471;-73
2022/09/06 09:11:14;;;;;;;13.27;3.05;;;22.40;58.20;;;;;;4972451;28;20138;-73
2022/09/06 09:13:46;;;;;;;11.30;2.90;;;22.40;58.60;;;;;;4971766;28;20046;-73
2022/09/06 09:16:13;;;;;;;8.77;2.70;;;22.40;59.00;;;;;;4944509;28;20535;-73
2022/09/06 09:18:44;;;;;;;11.48;3.20;;;22.40;59.00;;;;;;4953938;28;20503;-73
2022/09/06 09:21:10;;;;;;;8.05;3.22;;;22.40;59.20;;;;;;4955107;28;20450;-73
2022/09/06 09:23:36;;;;;;;14.18;3.00;;;22.50;59.70;;;;;;4973545;28;20376;-76
2022/09/06 09:26:08;;;;;;;8.68;2.85;;;22.50;59.30;;;;;;4956691;28;20030;-76
2022/09/06 09:28:34;;;;;;;15.60;3.17;;;22.50;58.60;;;;;;4951446;28;20086;-76
2022/09/06 09:31:00;;;;;;;15.00;3.83;;;22.40;57.20;;;;;;4965514;28;20384;-76
2022/09/06 09:33:28;;;;;;;20.40;8.63;;;22.40;58.70;;;;;;4956869;28;20452;-76
2022/09/06 09:35:56;;;;;;;27.75;16.27;;;22.40;58.60;;;;;;4966153;28;20026;-77
2022/09/06 09:38:26;;;;;;;24.45;14.68;;;22.30;57.80;;;;;;4964622;28;20101;-77
2022/09/06 09:40:54;;;;;;;;;;;22.30;57.50;;;;;;4961643;28;20030;-77
2022/09/06 09:43:32;;;;;;;29.73;14.60;;;22.30;57.80;;;;;;4974933;28;19909;-77
2022/09/06 09:46:23;;;;;;;15.55;6.80;;;22.30;56.20;;;;;;4992898;28;20030;-77
2022/09/06 09:49:21;;;;;;;15.57;9.02;;;22.30;57.80;;;;;;4991157;28;20030;-77
2022/09/06 09:52:09;;;;;;;22.33;8.80;;;22.30;56.60;;;;;;4951738;28;20174;-76
2022/09/06 09:54:43;;;;;;;17.73;7.88;;;22.30;56.80;;;;;;4975191;28;20085;-77
2022/09/06 09:57:18;;;;;;;14.45;6.95;;;22.20;56.40;;;;;;4973716;28;20065;-77
2022/09/06 09:59:50;;;;;;;14.07;6.82;;;22.20;56.10;;;;;;4944776;28;20026;-77
2022/09/06 10:02:34;;;;;;;17.38;7.57;;;22.20;55.70;;;;;;4977034;28;20039;-77
2022/09/06 10:05:06;;;;;;;13.77;6.25;;;22.20;56.20;;;;;;4977038;28;20038;-77
2022/09/06 10:07:33;;;;;;;14.35;5.10;;;22.20;56.00;;;;;;4961121;28;20038;-77
2022/09/06 10:10:04;;;;;;;11.18;5.30;;;22.20;55.50;;;;;;4976968;28;20367;-77
2022/09/06 10:12:38;;;;;;;16.52;5.32;;;22.20;54.60;;;;;;4977002;28;20026;-77
2022/09/06 10:15:07;;;;;;;14.50;6.05;;;22.20;53.10;;;;;;4994147;28;20038;-78
2022/09/06 10:17:47;;;;;;;16.23;5.45;;;22.20;55.30;;;;;;4994401;28;20113;-77
2022/09/06 10:20:13;;;;;;;12.32;5.18;;;22.20;55.00;;;;;;4976816;28;20032;-76
2022/09/06 10:22:48;;;;;;;13.07;4.30;;;22.20;54.40;;;;;;4960981;28;20129;-77
2022/09/06 10:25:26;;;;;;;9.95;4.00;;;22.20;55.20;;;;;;4994547;28;20042;-75
2022/09/06 10:28:13;;;;;;;13.15;4.32;;;22.20;54.70;;;;;;4960613;28;20089;-75
2022/09/06 10:30:49;;;;;;;11.02;4.28;;;22.20;54.50;;;;;;4976680;28;20038;-75
2022/09/06 10:33:36;;;;;;;7.50;3.40;;;22.20;54.90;;;;;;4976787;28;20113;-75
2022/09/06 10:36:03;;;;;;;9.77;3.63;;;22.20;54.70;;;;;;4944729;28;20035;-75
2022/09/06 10:38:55;;;;;;;10.05;3.55;;;22.10;54.10;;;;;;4993486;28;20029;-75
2022/09/06 10:41:57;;;;;;;7.63;3.42;;;22.20;54.70;;;;;;4976204;28;20030;-75
2022/09/06 10:44:31;;;;;;;18.67;4.18;;;22.20;52.40;;;;;;4960288;28;20077;-76
2022/09/06 10:47:13;;;;;;;13.55;3.55;;;22.20;52.50;;;;;;4991894;28;20387;-76
2022/09/06 10:49:44;;;;;;;17.40;3.58;;;22.20;52.10;;;;;;4971616;28;20082;-75
2022/09/06 10:52:17;;;;;;;20.88;3.55;;;22.20;51.90;;;;;;4970727;28;20025;-77
2022/09/06 10:54:46;;;;;;;21.05;3.95;;;22.20;52.30;;;;;;4967775;28;20019;-77
2022/09/06 10:57:22;;;;;;;15.55;4.03;;;22.20;52.10;;;;;;4965396;28;20144;-77
2022/09/06 10:59:54;;;;;;;15.27;3.75;;;22.20;52.10;;;;;;4962751;28;20077;-77
2022/09/06 11:02:50;;;;;;;13.27;3.35;;;22.30;52.30;;;;;;4945578;28;20049;-77
2022/09/06 11:05:21;;;;;;;15.45;3.40;;;22.30;52.40;;;;;;4964475;28;20546;-77
2022/09/06 11:07:59;;;;;;;12.18;3.45;;;22.30;52.80;;;;;;4954950;28;20165;-74
2022/09/06 11:10:31;;;;;;;16.38;4.35;;;22.30;52.90;;;;;;4963559;28;20061;-74
2022/09/06 11:13:04;;;;;;;14.93;4.25;;;22.30;52.90;;;;;;4954003;28;20022;-75
2022/09/06 11:15:40;;;;;;;28.35;5.00;;;22.30;53.00;;;;;;4964603;28;20030;-74
2022/09/06 11:18:14;;;;;;;18.48;5.03;;;22.30;53.10;;;;;;4971806;28;20050;-74
2022/09/06 11:21:17;;;;;;;19.25;5.95;;;22.30;53.50;;;;;;4956149;28;20380;-74
2022/09/06 11:24:07;;;;;;;17.13;5.82;;;22.30;53.40;;;;;;4956310;28;20029;-74
2022/09/06 11:26:43;;;;;;;20.92;5.97;;;22.30;53.60;;;;;;4973745;28;20041;-74
2022/09/06 11:29:25;;;;;;;27.92;6.68;;;22.40;53.60;;;;;;4973221;28;20503;-74
2022/09/06 11:31:58;;;;;;;22.02;7.03;;;22.40;53.90;;;;;;4973822;28;20030;-74
2022/09/06 11:34:26;;;;;;;27.13;7.05;;;22.40;54.10;;;;;;4973469;28;20026;-74
2022/09/06 11:36:57;;;;;;;25.23;7.25;;;22.40;54.20;;;;;;4973466;28;20038;-75
2022/09/06 11:39:33;;;;;;;23.38;7.47;;;22.40;54.40;;;;;;4955709;28;20034;-75
2022/09/06 11:41:59;;;;;;;25.15;7.00;;;22.40;54.30;;;;;;4924723;28;20130;-75
2022/09/06 11:44:57;;;;;;;21.48;7.30;;;22.40;54.50;;;;;;4973186;28;20035;-75
2022/09/06 11:47:43;;;;;;;23.63;7.60;;;22.40;54.70;;;;;;4921059;28;20407;-74
2022/09/06 11:50:42;;;;;;;18.00;6.85;;;22.40;54.70;;;;;;4955657;28;20509;-74
2022/09/06 11:53:35;;;;;;;21.23;6.07;;;22.40;54.70;;;;;;4973156;28;20114;-74
2022/09/06 11:56:00;;;;;;;19.75;7.68;;;22.40;54.80;;;;;;4947140;28;20278;-73
2022/09/06 11:58:50;;;;;;;25.85;7.13;;;22.40;54.90;;;;;;4973022;28;20387;-74
2022/09/06 12:01:17;;;;;;;19.80;6.60;;;22.40;55.00;;;;;;4972141;28;20227;-74
2022/09/06 12:03:52;;;;;;;21.50;6.75;;;22.40;54.90;;;;;;4972933;28;20023;-74
2022/09/06 12:06:20;;;;;;;21.35;6.30;;;22.40;55.00;;;;;;4973067;28;20475;-74
2022/09/06 12:08:51;;;;;;;21.40;6.82;;;22.40;55.00;;;;;;4939836;28;20164;-75
2022/09/06 12:11:35;;;;;;;20.33;6.30;;;22.40;55.10;;;;;;4972959;28;20519;-74
2022/09/06 12:14:22;;;;;;;19.55;6.68;;;22.40;55.10;;;;;;4973125;28;20042;-75
2022/09/06 12:17:00;;;;;;;20.48;7.32;;;22.40;55.20;;;;;;4973051;28;20031;-74
2022/09/06 12:19:46;;;;;;;21.58;7.03;;;22.40;55.20;;;;;;4972473;28;20242;-74
2022/09/06 12:22:36;;;;;;;17.70;6.30;;;22.50;55.30;;;;;;4973087;28;20043;-74
2022/09/06 12:25:25;;;;;;;19.40;6.70;;;22.40;55.40;;;;;;4972679;28;20517;-74
2022/09/06 12:27:57;;;;;;;20.77;7.40;;;22.40;55.50;;;;;;4972357;28;20057;-74
2022/09/06 12:30:36;;;;;;;19.95;7.30;;;22.50;55.70;;;;;;4972571;28;20031;-74
2022/09/06 12:33:37;;;;;;;20.42;7.72;;;22.50;55.90;;;;;;4972621;28;20027;-74
2022/09/06 12:36:21;;;;;;;22.38;7.55;;;22.50;56.00;;;;;;4970777;28;20390;-75
2022/09/06 12:39:03;;;;;;;28.75;7.10;;;22.50;56.10;;;;;;4971226;28;20031;-74
2022/09/06 12:41:35;;;;;;;22.23;7.03;;;22.50;56.10;;;;;;4964959;28;20033;-74
2022/09/06 12:44:04;;;;;;;19.90;6.88;;;22.40;56.20;;;;;;4972514;28;20039;-74
2022/09/06 12:46:31;;;;;;;19.08;6.50;;;22.50;56.30;;;;;;4972688;28;20140;-74
2022/09/06 12:49:02;;;;;;;19.13;7.18;;;22.40;56.30;;;;;;4971274;28;20043;-74
2022/09/06 12:51:28;;;;;;;19.75;6.70;;;22.50;56.40;;;;;;4948650;28;20034;-73
2022/09/06 12:53:58;;;;;;;22.92;6.65;;;22.40;56.40;;;;;;4964560;28;20078;-74
2022/09/06 12:56:26;;;;;;;20.00;6.75;;;22.40;56.40;;;;;;4961536;28;20101;-75
2022/09/06 12:58:52;;;;;;;17.00;6.45;;;22.50;56.50;;;;;;4957492;28;20383;-74
2022/09/06 13:01:41;;;;;;;21.58;6.82;;;22.50;56.40;;;;;;4958828;28;20102;-74
2022/09/06 13:04:17;;;;;;;17.10;6.80;;;22.50;56.80;;;;;;4958713;28;20427;-74
2022/09/06 13:06:45;;;;;;;24.63;7.18;;;22.50;58.50;;;;;;4958989;28;20101;-74
2022/09/06 13:09:15;;;;;;;32.45;7.60;;;22.60;58.90;;;;;;4958469;28;20042;-75
2022/09/06 13:11:47;;;;;;;35.17;9.05;;;22.60;59.60;;;;;;4976176;28;20403;-72